Time,TemperatureF,DewpointF,PressureIn,WindDirection,WindDirectionDegrees,WindSpeedMPH,WindSpeedGustMPH,Humidity,HourlyPrecipIn,Conditions,Clouds,dailyrainin,SolarRadiationWatts/m^2,SoftwareType,DateUTC
2013-01-13 00:03:00,28.6,-2.0,30.18,North,360,3.5,3.5,26,0.00,CLR,,0.00,0.0,WeatherDisplay:10.37,2013-01-13 08:03:00,
2013-01-13 00:08:00,28.5,-2.1,30.18,North,360,3.0,3.0,26,0.00,CLR,,0.00,0.0,WeatherDisplay:10.37,2013-01-13 08:08:00,
2013-01-13 00:13:00,28.5,-2.1,30.18,WNW,302,4.0,4.0,26,0.00,CLR,,0.00,0.0,WeatherDisplay:10.37,2013-01-13 08:13:00,
2013-01-13 00:18:00,28.5,-2.1,30.19,NNW,338,2.3,2.3,26,0.00,CLR,,0.00,0.0,WeatherDisplay:10.37,2013-01-13 08:18:00,
2013-01-13 00:23:00,28.2,-2.4,30.19,NNE,21,1.0,1.0,26,0.00,CLR,,0.00,0.0,WeatherDisplay:10.37,2013-01-13 08:23:00,
2013-01-13 00:28:00,28.2,-2.4,30.19,WNW,292,1.1,1.1,26,0.00,CLR,,0.00,0.0,WeatherDisplay:10.37,2013-01-13 08:28:00,
2013-01-13 00:33:00,28.1,-2.4,30.19,WNW,282,2.3,2.3,26,0.00,CLR,,0.00,0.0,WeatherDisplay:10.37,2013-01-13 08:33:00,
2013-01-13 00:39:00,28.1,-3.3,30.19,WNW,284,0.0,0.0,25,0.00,CLR,,0.00,0.0,WeatherDisplay:10.37,2013-01-13 08:39:00,
2013-01-13 00:44:00,27.5,-3.0,30.19,WNW,296,2.0,2.1,26,0.00,CLR,,0.00,0.0,WeatherDisplay:10.37,2013-01-13 08:44:00,
2013-01-13 00:49:00,27.8,-2.7,30.19,WNW,296,0.0,0.0,26,0.00,CLR,,0.00,0.0,WeatherDisplay:10.37,2013-01-13 08:49:00,
2013-01-13 00:54:00,27.0,-2.6,30.19,WNW,297,0.0,0.0,27,0.00,CLR,,0.00,0.0,WeatherDisplay:10.37,2013-01-13 08:54:00,
2013-01-13 00:59:00,26.3,-1.7,30.19,WNW,296,0.0,0.0,29,0.00,CLR,,0.00,0.0,WeatherDisplay:10.37,2013-01-13 08:59:00,
2013-01-13 01:04:00,25.8,-1.4,30.19,WNW,296,0.0,0.0,30,0.00,SCT,,0.00,0.0,WeatherDisplay:10.37,2013-01-13 09:04:00,
2013-01-13 01:09:00,25.8,-0.7,30.19,South,169,6.9,6.9,31,0.00,SCT,,0.00,0.0,WeatherDisplay:10.37,2013-01-13 09:09:00,
2013-01-13 01:14:00,26.6,-2.2,30.19,SW,217,2.3,2.3,28,0.00,SCT,,0.00,0.0,WeatherDisplay:10.37,2013-01-13 09:14:00,
2013-01-13 01:19:00,26.1,-1.9,30.19,South,179,2.3,2.3,29,0.00,SCT,,0.00,0.0,WeatherDisplay:10.37,2013-01-13 09:19:00,
2013-01-13 01:24:00,26.1,-1.9,30.19,SSE,162,1.1,1.1,29,0.00,SCT,,0.00,0.0,WeatherDisplay:10.37,2013-01-13 09:24:00,
2013-01-13 01:29:00,25.5,-1.7,30.19,SSE,162,0.0,0.0,30,0.00,SCT,,0.00,0.0,WeatherDisplay:10.37,2013-01-13 09:29:00,
2013-01-13 01:34:00,25.5,-1.7,30.19,SW,236,0.0,0.3,30,0.00,SCT,,0.00,0.0,WeatherDisplay:10.37,2013-01-13 09:34:00,
2013-01-13 01:39:00,25.4,-1.1,30.19,SW,219,2.3,0.0,31,0.00,SCT,,0.00,0.0,WeatherDisplay:10.37,2013-01-13 09:39:00,
2013-01-13 01:44:00,25.2,-1.3,30.19,WSW,238,2.3,2.3,31,0.00,SCT,,0.00,0.0,WeatherDisplay:10.37,2013-01-13 09:44:00,
2013-01-13 01:49:00,25.4,-1.8,30.20,WSW,238,3.5,3.5,30,0.00,SCT,,0.00,0.0,WeatherDisplay:10.37,2013-01-13 09:49:00,
2013-01-13 01:54:00,25.2,-2.0,30.20,WSW,240,2.3,2.3,30,0.00,SCT,,0.00,0.0,WeatherDisplay:10.37,2013-01-13 09:54:00,
2013-01-13 01:59:00,24.9,-0.8,30.20,WSW,243,1.1,1.1,32,0.00,SCT,,0.00,0.0,WeatherDisplay:10.37,2013-01-13 09:59:00,
2013-01-13 02:04:00,24.7,-1.0,30.21,WSW,242,0.0,0.2,32,0.00,SCT,,0.00,0.0,WeatherDisplay:10.37,2013-01-13 10:04:00,
2013-01-13 02:09:00,24.5,-1.2,30.21,SW,236,0.0,0.0,32,0.00,SCT,,0.00,0.0,WeatherDisplay:10.37,2013-01-13 10:09:00,
2013-01-13 02:14:00,24.7,-1.0,30.21,SW,235,0.0,0.0,32,0.00,SCT,,0.00,0.0,WeatherDisplay:10.37,2013-01-13 10:14:00,
2013-01-13 02:19:00,24.2,-1.5,30.21,SW,233,0.0,0.0,32,0.00,SCT,,0.00,0.0,WeatherDisplay:10.37,2013-01-13 10:19:00,
2013-01-13 02:24:00,23.9,-1.1,30.21,WSW,244,0.0,0.0,33,0.00,SCT,,0.00,0.0,WeatherDisplay:10.37,2013-01-13 10:24:00,
2013-01-13 02:29:00,23.8,-0.5,30.21,SW,234,0.0,0.0,34,0.00,SCT,,0.00,0.0,WeatherDisplay:10.37,2013-01-13 10:29:00,
2013-01-13 02:34:00,23.3,-1.0,30.21,SW,234,0.0,0.0,34,0.00,SCT,,0.00,0.0,WeatherDisplay:10.37,2013-01-13 10:34:00,
2013-01-13 02:39:00,23.2,-0.5,30.21,SW,234,0.0,0.0,35,0.00,SCT,,0.00,0.0,WeatherDisplay:10.37,2013-01-13 10:39:00,
2013-01-13 02:44:00,23.0,-1.2,30.21,SW,234,0.0,0.0,34,0.00,SCT,,0.00,0.0,WeatherDisplay:10.37,2013-01-13 10:44:00,
2013-01-13 02:49:00,22.6,-0.4,30.20,SW,234,0.0,0.0,36,0.00,SCT,,0.00,0.0,WeatherDisplay:10.37,2013-01-13 10:49:00,
2013-01-13 02:54:00,22.7,-0.9,30.20,WSW,255,0.0,0.0,35,0.00,SCT,,0.00,0.0,WeatherDisplay:10.37,2013-01-13 10:54:00,
2013-01-13 02:59:00,22.9,-0.7,30.20,WSW,255,0.0,0.0,35,0.00,SCT,,0.00,0.0,WeatherDisplay:10.37,2013-01-13 10:59:00,
2013-01-13 03:04:00,22.3,-0.7,30.20,WSW,255,0.0,0.0,36,0.00,SCT,,0.00,0.0,WeatherDisplay:10.37,2013-01-13 11:04:00,
2013-01-13 03:09:00,22.3,-0.7,30.20,WSW,255,0.0,0.0,36,0.00,SCT,,0.00,0.0,WeatherDisplay:10.37,2013-01-13 11:09:00,
2013-01-13 03:14:00,22.6,-1.0,30.20,WSW,255,0.0,0.0,35,0.00,SCT,,0.00,0.0,WeatherDisplay:10.37,2013-01-13 11:14:00,
2013-01-13 03:19:00,22.1,-0.3,30.20,WSW,255,0.0,0.0,37,0.00,SCT,,0.00,0.0,WeatherDisplay:10.37,2013-01-13 11:19:00,
2013-01-13 03:24:00,22.0,-0.3,30.20,WSW,255,0.0,0.0,37,0.00,SCT,,0.00,0.0,WeatherDisplay:10.37,2013-01-13 11:24:00,
2013-01-13 03:29:00,21.8,0.0,30.20,WSW,255,0.0,0.0,38,0.00,SCT,,0.00,0.0,WeatherDisplay:10.37,2013-01-13 11:29:00,
2013-01-13 03:34:00,21.8,0.0,30.19,WSW,255,0.0,0.0,38,0.00,SCT,,0.00,0.0,WeatherDisplay:10.37,2013-01-13 11:34:00,
2013-01-13 03:39:00,22.1,-0.3,30.19,SW,226,0.0,0.0,37,0.00,SCT,,0.00,0.0,WeatherDisplay:10.37,2013-01-13 11:39:00,
2013-01-13 03:44:00,22.6,-0.4,30.19,SW,226,0.0,0.0,36,0.00,SCT,,0.00,0.0,WeatherDisplay:10.37,2013-01-13 11:44:00,
2013-01-13 03:49:00,23.0,0.0,30.19,SW,226,0.0,0.0,36,0.00,SCT,,0.00,0.0,WeatherDisplay:10.37,2013-01-13 11:49:00,
2013-01-13 03:54:00,22.3,0.5,30.19,SW,226,0.0,0.0,38,0.00,SCT,,0.00,0.0,WeatherDisplay:10.37,2013-01-13 11:54:00,
2013-01-13 03:59:00,21.5,0.3,30.19,SW,226,0.0,0.0,39,0.00,SCT,,0.00,0.0,WeatherDisplay:10.37,2013-01-13 11:59:00,
2013-01-13 04:04:00,21.5,-0.2,30.19,SW,226,0.0,0.0,38,0.00,FEW,,0.00,0.0,WeatherDisplay:10.37,2013-01-13 12:04:00,
2013-01-13 04:09:00,21.0,-0.1,30.19,SW,226,0.0,0.0,39,0.00,FEW,,0.00,0.0,WeatherDisplay:10.37,2013-01-13 12:09:00,
2013-01-13 04:14:00,21.2,0.1,30.19,SW,226,0.0,0.0,39,0.00,FEW,,0.00,0.0,WeatherDisplay:10.37,2013-01-13 12:14:00,
2013-01-13 04:19:00,21.8,0.0,30.19,SW,226,0.0,0.0,38,0.00,FEW,,0.00,0.0,WeatherDisplay:10.37,2013-01-13 12:19:00,
2013-01-13 04:24:00,20.9,-0.2,30.19,SW,226,0.0,0.0,39,0.00,FEW,,0.00,0.0,WeatherDisplay:10.37,2013-01-13 12:24:00,
2013-01-13 04:29:00,20.4,-0.1,30.19,SW,226,0.0,0.0,40,0.00,FEW,,0.00,0.0,WeatherDisplay:10.37,2013-01-13 12:29:00,
2013-01-13 04:34:00,20.2,0.2,30.18,SW,226,0.0,0.0,41,0.00,FEW,,0.00,0.0,WeatherDisplay:10.37,2013-01-13 12:34:00,
2013-01-13 04:39:00,20.2,0.2,30.18,SW,229,0.0,0.0,41,0.00,FEW,,0.00,0.0,WeatherDisplay:10.37,2013-01-13 12:39:00,
2013-01-13 04:44:00,20.2,0.2,30.18,SW,229,0.0,0.0,41,0.00,FEW,,0.00,0.0,WeatherDisplay:10.37,2013-01-13 12:44:00,
2013-01-13 04:49:00,20.2,0.2,30.18,SW,229,0.0,0.0,41,0.00,FEW,,0.00,0.0,WeatherDisplay:10.37,2013-01-13 12:49:00,
2013-01-13 04:54:00,20.1,0.1,30.18,SW,236,0.0,0.0,41,0.00,FEW,,0.00,0.0,WeatherDisplay:10.37,2013-01-13 12:54:00,
2013-01-13 04:59:00,20.1,0.1,30.18,WSW,241,0.0,0.0,41,0.00,FEW,,0.00,0.0,WeatherDisplay:10.37,2013-01-13 12:59:00,
2013-01-13 05:04:00,19.6,0.7,30.18,WSW,241,0.0,0.0,43,0.00,CLR,,0.00,0.0,WeatherDisplay:10.37,2013-01-13 13:04:00,
2013-01-13 05:09:00,19.9,0.5,30.18,WSW,241,0.0,0.0,42,0.00,CLR,,0.00,0.0,WeatherDisplay:10.37,2013-01-13 13:09:00,
2013-01-13 05:14:00,21.0,0.4,30.18,WSW,240,0.0,0.0,40,0.00,CLR,,0.00,0.0,WeatherDisplay:10.37,2013-01-13 13:14:00,
2013-01-13 05:19:00,20.4,0.4,30.19,WSW,240,0.0,0.0,41,0.00,CLR,,0.00,0.0,WeatherDisplay:10.37,2013-01-13 13:19:00,
2013-01-13 05:24:00,20.4,0.4,30.19,WSW,240,0.0,0.0,41,0.00,CLR,,0.00,0.0,WeatherDisplay:10.37,2013-01-13 13:24:00,
2013-01-13 05:29:00,20.1,0.1,30.19,WSW,240,0.0,0.0,41,0.00,CLR,,0.00,0.0,WeatherDisplay:10.37,2013-01-13 13:29:00,
2013-01-13 05:34:00,19.6,0.2,30.19,WSW,240,0.0,0.0,42,0.00,CLR,,0.00,0.0,WeatherDisplay:10.37,2013-01-13 13:34:00,
2013-01-13 05:39:00,20.2,0.7,30.19,WSW,240,0.0,0.0,42,0.00,CLR,,0.00,0.0,WeatherDisplay:10.37,2013-01-13 13:39:00,
2013-01-13 05:44:00,19.7,0.8,30.19,WSW,246,0.0,0.0,43,0.00,CLR,,0.00,0.0,WeatherDisplay:10.37,2013-01-13 13:44:00,
2013-01-13 05:49:00,19.6,0.7,30.20,WSW,246,0.0,0.0,43,0.00,CLR,,0.00,0.0,WeatherDisplay:10.37,2013-01-13 13:49:00,
2013-01-13 05:54:00,19.7,0.8,30.20,SW,235,0.0,0.0,43,0.00,CLR,,0.00,0.0,WeatherDisplay:10.37,2013-01-13 13:54:00,
2013-01-13 05:59:00,19.3,0.4,30.20,SW,235,0.0,0.0,43,0.00,CLR,,0.00,0.0,WeatherDisplay:10.37,2013-01-13 13:59:00,
2013-01-13 06:04:00,19.0,0.1,30.20,SW,235,0.0,0.0,43,0.00,CLR,,0.00,0.0,WeatherDisplay:10.37,2013-01-13 14:04:00,
2013-01-13 06:09:00,19.3,0.9,30.20,WSW,238,0.0,0.0,44,0.00,CLR,,0.00,0.0,WeatherDisplay:10.37,2013-01-13 14:09:00,
2013-01-13 06:14:00,19.9,0.5,30.20,WSW,237,0.0,0.0,42,0.00,CLR,,0.00,0.0,WeatherDisplay:10.37,2013-01-13 14:14:00,
2013-01-13 06:19:00,20.2,0.2,30.22,SW,233,0.0,0.0,41,0.00,CLR,,0.00,0.0,WeatherDisplay:10.37,2013-01-13 14:19:00,
2013-01-13 06:24:00,19.6,0.7,30.22,SW,233,0.0,0.0,43,0.00,CLR,,0.00,0.0,WeatherDisplay:10.37,2013-01-13 14:24:00,
2013-01-13 06:29:00,19.3,-0.1,30.22,SW,233,0.0,0.0,42,0.00,CLR,,0.00,0.0,WeatherDisplay:10.37,2013-01-13 14:29:00,
2013-01-13 06:34:00,19.1,0.2,30.22,SW,233,0.0,0.0,43,0.00,CLR,,0.00,0.0,WeatherDisplay:10.37,2013-01-13 14:34:00,
2013-01-13 06:39:00,19.1,0.2,30.22,SW,233,0.0,0.0,43,0.00,CLR,,0.00,0.0,WeatherDisplay:10.37,2013-01-13 14:39:00,
2013-01-13 06:44:00,19.9,1.0,30.22,SW,229,0.0,0.0,43,0.00,CLR,,0.00,0.0,WeatherDisplay:10.37,2013-01-13 14:44:00,
2013-01-13 06:49:00,19.1,0.2,30.22,SW,229,0.0,0.0,43,0.00,CLR,,0.00,5.7,WeatherDisplay:10.37,2013-01-13 14:49:00,
2013-01-13 06:54:00,18.8,0.5,30.22,SW,229,0.0,0.0,44,0.00,CLR,,0.00,8.0,WeatherDisplay:10.37,2013-01-13 14:54:00,
2013-01-13 06:59:00,18.5,0.7,30.22,SW,229,0.0,0.0,45,0.00,CLR,,0.00,18.2,WeatherDisplay:10.37,2013-01-13 14:59:00,
2013-01-13 07:04:00,19.0,1.6,30.23,SW,229,0.0,0.0,46,0.00,CLR,,0.00,26.2,WeatherDisplay:10.37,2013-01-13 15:04:00,
2013-01-13 07:09:00,19.6,1.2,30.23,SW,229,0.0,0.0,44,0.00,CLR,,0.00,37.6,WeatherDisplay:10.37,2013-01-13 15:09:00,
2013-01-13 07:14:00,19.6,1.2,30.23,SW,229,0.0,0.0,44,0.00,CLR,,0.00,52.4,WeatherDisplay:10.37,2013-01-13 15:14:00,
2013-01-13 07:19:00,19.3,0.9,30.24,SW,229,0.0,0.0,44,0.00,CLR,,0.00,66.1,WeatherDisplay:10.37,2013-01-13 15:19:00,
2013-01-13 07:24:00,19.6,1.7,30.24,SW,229,0.0,0.0,45,0.00,CLR,,0.00,79.8,WeatherDisplay:10.37,2013-01-13 15:24:00,
2013-01-13 07:29:00,20.2,1.7,30.24,SW,229,0.0,0.0,44,0.00,CLR,,0.00,98.0,WeatherDisplay:10.37,2013-01-13 15:29:00,
2013-01-13 07:34:00,21.0,1.5,30.24,SW,229,0.0,0.0,42,0.00,CLR,,0.00,116.3,WeatherDisplay:10.37,2013-01-13 15:34:00,
2013-01-13 07:39:00,21.3,1.2,30.24,SW,229,0.0,0.0,41,0.00,CLR,,0.00,134.5,WeatherDisplay:10.37,2013-01-13 15:39:00,
2013-01-13 07:44:00,22.1,1.4,30.24,SW,230,0.0,0.0,40,0.00,CLR,,0.00,150.5,WeatherDisplay:10.37,2013-01-13 15:44:00,
2013-01-13 07:49:00,23.0,1.1,30.24,SW,229,0.0,0.0,38,0.00,CLR,,0.00,166.4,WeatherDisplay:10.37,2013-01-13 15:49:00,
2013-01-13 07:54:00,23.8,1.3,30.24,WSW,237,0.0,0.1,37,0.00,CLR,,0.00,182.4,WeatherDisplay:10.37,2013-01-13 15:54:00,
2013-01-13 07:59:00,24.2,1.0,30.24,SW,227,2.0,2.0,36,0.00,CLR,,0.00,198.4,WeatherDisplay:10.37,2013-01-13 15:59:00,
2013-01-13 08:04:00,24.5,0.7,30.24,SW,234,3.5,3.5,35,0.00,FEW,,0.00,212.0,WeatherDisplay:10.37,2013-01-13 16:04:00,
2013-01-13 08:09:00,24.5,0.7,30.24,SW,215,0.0,0.0,35,0.00,FEW,,0.00,228.0,WeatherDisplay:10.37,2013-01-13 16:09:00,
2013-01-13 08:14:00,24.7,0.3,30.24,SSW,209,0.0,0.0,34,0.00,FEW,,0.00,246.2,WeatherDisplay:10.37,2013-01-13 16:14:00,
2013-01-13 08:19:00,25.1,0.6,30.24,SSE,155,0.0,0.0,34,0.00,FEW,,0.00,262.2,WeatherDisplay:10.37,2013-01-13 16:19:00,
2013-01-13 08:24:00,25.1,0.0,30.24,SSE,158,2.3,2.3,33,0.00,FEW,,0.00,280.4,WeatherDisplay:10.37,2013-01-13 16:24:00,
2013-01-13 08:29:00,25.4,-0.4,30.24,SSE,159,3.5,3.5,32,0.00,FEW,,0.00,296.4,WeatherDisplay:10.37,2013-01-13 16:29:00,
2013-01-13 08:34:00,25.7,-0.1,30.24,SE,145,0.0,0.0,32,0.00,FEW,,0.00,312.4,WeatherDisplay:10.37,2013-01-13 16:34:00,
2013-01-13 08:39:00,25.5,-0.3,30.24,SSE,155,0.0,0.0,32,0.00,FEW,,0.00,328.3,WeatherDisplay:10.37,2013-01-13 16:39:00,
2013-01-13 08:44:00,25.7,-0.1,30.24,SE,126,1.1,0.0,32,0.00,FEW,,0.00,346.6,WeatherDisplay:10.37,2013-01-13 16:44:00,
2013-01-13 08:49:00,25.7,-0.8,30.24,SSE,147,0.0,0.0,31,0.00,FEW,,0.00,360.2,WeatherDisplay:10.37,2013-01-13 16:49:00,
2013-01-13 08:54:00,26.3,-0.3,30.24,SE,132,4.6,4.6,31,0.00,FEW,,0.00,372.8,WeatherDisplay:10.37,2013-01-13 16:54:00,
2013-01-13 08:59:00,26.7,0.1,30.24,East,97,1.0,1.0,31,0.00,FEW,,0.00,396.7,WeatherDisplay:10.37,2013-01-13 16:59:00,
2013-01-13 09:04:00,26.9,0.2,30.24,ESE,110,1.1,0.0,31,0.00,FEW,,0.00,422.9,WeatherDisplay:10.37,2013-01-13 17:04:00,
2013-01-13 09:09:00,27.0,-0.4,30.24,SSE,155,4.6,4.6,30,0.00,FEW,,0.00,459.4,WeatherDisplay:10.37,2013-01-13 17:09:00,
2013-01-13 09:14:00,27.3,-0.1,30.24,East,94,1.1,1.1,30,0.00,FEW,,0.00,451.4,WeatherDisplay:10.37,2013-01-13 17:14:00,
2013-01-13 09:19:00,27.0,-0.4,30.24,East,92,0.0,0.0,30,0.00,FEW,,0.00,352.3,WeatherDisplay:10.37,2013-01-13 17:19:00,
2013-01-13 09:24:00,27.3,-1.6,30.24,SSE,164,2.3,2.3,28,0.00,FEW,,0.00,454.9,WeatherDisplay:10.37,2013-01-13 17:24:00,
2013-01-13 09:29:00,27.0,-1.8,30.24,SSE,161,1.1,1.1,28,0.00,FEW,,0.00,386.5,WeatherDisplay:10.37,2013-01-13 17:29:00,
2013-01-13 09:34:00,27.9,-1.1,30.24,SSE,151,3.5,3.5,28,0.00,FEW,,0.00,420.7,WeatherDisplay:10.37,2013-01-13 17:34:00,
2013-01-13 09:39:00,28.2,-0.8,30.24,SSE,151,4.6,4.6,28,0.00,FEW,,0.00,499.3,WeatherDisplay:10.37,2013-01-13 17:39:00,
2013-01-13 09:44:00,28.1,-1.7,30.24,SSE,155,2.3,2.3,27,0.00,FEW,,0.00,468.5,WeatherDisplay:10.37,2013-01-13 17:44:00,
2013-01-13 09:49:00,28.9,-1.0,30.24,SE,136,0.0,0.0,27,0.00,FEW,,0.00,579.1,WeatherDisplay:10.37,2013-01-13 17:49:00,
2013-01-13 09:54:00,28.5,-1.3,30.24,WSW,241,0.0,0.0,27,0.00,FEW,,0.00,518.7,WeatherDisplay:10.37,2013-01-13 17:54:00,
2013-01-13 09:59:00,29.2,-1.5,30.24,SSE,148,1.1,0.0,26,0.00,FEW,,0.00,515.3,WeatherDisplay:10.37,2013-01-13 17:59:00,
2013-01-13 10:04:00,29.8,-1.0,30.24,SSE,153,1.1,1.1,26,0.00,FEW,,0.00,539.2,WeatherDisplay:10.37,2013-01-13 18:04:00,
2013-01-13 10:09:00,30.0,-1.6,30.24,South,169,2.3,2.3,25,0.00,FEW,,0.00,583.7,WeatherDisplay:10.37,2013-01-13 18:09:00,
2013-01-13 10:14:00,31.3,-0.5,30.23,North,350,4.0,4.0,25,0.00,FEW,,0.00,550.6,WeatherDisplay:10.37,2013-01-13 18:14:00,
2013-01-13 10:19:00,31.6,-1.1,30.23,East,97,2.3,2.3,24,0.00,FEW,,0.00,499.3,WeatherDisplay:10.37,2013-01-13 18:19:00,
2013-01-13 10:24:00,31.6,-0.3,30.23,ENE,61,7.0,7.0,25,0.00,FEW,,0.00,351.1,WeatherDisplay:10.37,2013-01-13 18:24:00,
2013-01-13 10:29:00,31.9,-0.9,30.23,NE,55,4.0,4.0,24,0.00,FEW,,0.00,422.9,WeatherDisplay:10.37,2013-01-13 18:29:00,
2013-01-13 10:34:00,32.8,-0.1,30.23,NNE,29,3.5,3.5,24,0.00,FEW,,0.00,525.5,WeatherDisplay:10.37,2013-01-13 18:34:00,
2013-01-13 10:39:00,31.9,-0.9,30.23,NE,43,3.5,3.5,24,0.00,FEW,,0.00,476.5,WeatherDisplay:10.37,2013-01-13 18:39:00,
2013-01-13 10:44:00,32.5,-0.4,30.22,NE,34,6.9,6.9,24,0.00,FEW,,0.00,515.3,WeatherDisplay:10.37,2013-01-13 18:44:00,
2013-01-13 10:49:00,32.8,-1.0,30.22,ENE,76,3.5,3.5,23,0.00,FEW,,0.00,574.6,WeatherDisplay:10.37,2013-01-13 18:49:00,
2013-01-13 10:54:00,33.4,0.4,30.22,NE,34,7.0,7.0,24,0.00,FEW,,0.00,661.2,WeatherDisplay:10.37,2013-01-13 18:54:00,
2013-01-13 10:59:00,34.1,1.0,30.21,ENE,69,8.1,8.1,24,0.00,FEW,,0.00,677.2,WeatherDisplay:10.37,2013-01-13 18:59:00,
2013-01-13 11:04:00,32.5,0.5,30.21,ENE,67,3.5,3.5,25,0.00,BKN,,0.00,473.1,WeatherDisplay:10.37,2013-01-13 19:04:00,
2013-01-13 11:09:00,33.5,-0.4,30.21,NE,40,3.5,3.5,23,0.00,BKN,,0.00,685.1,WeatherDisplay:10.37,2013-01-13 19:09:00,
2013-01-13 11:14:00,33.5,0.5,30.21,NNE,32,6.0,6.0,24,0.00,BKN,,0.00,687.4,WeatherDisplay:10.37,2013-01-13 19:14:00,
2013-01-13 11:19:00,33.8,-0.2,30.21,NNW,342,4.0,4.0,23,0.00,BKN,,0.00,647.5,WeatherDisplay:10.37,2013-01-13 19:19:00,
2013-01-13 11:24:00,34.3,1.2,30.21,NE,34,6.9,6.9,24,0.00,BKN,,0.00,669.2,WeatherDisplay:10.37,2013-01-13 19:24:00,
2013-01-13 11:29:00,33.4,-0.5,30.20,ENE,61,11.5,11.5,23,0.00,BKN,,0.00,579.1,WeatherDisplay:10.37,2013-01-13 19:29:00,
2013-01-13 11:34:00,32.3,-0.5,30.20,ENE,57,4.6,4.6,24,0.00,BKN,,0.00,737.6,WeatherDisplay:10.37,2013-01-13 19:34:00,
2013-01-13 11:39:00,33.1,-0.8,30.20,NE,39,5.8,5.8,23,0.00,BKN,,0.00,721.6,WeatherDisplay:10.37,2013-01-13 19:39:00,
2013-01-13 11:44:00,34.4,-0.6,30.19,East,86,3.5,3.5,22,0.00,BKN,,0.00,555.2,WeatherDisplay:10.37,2013-01-13 19:44:00,
2013-01-13 11:49:00,32.9,-0.9,30.19,NE,56,3.0,3.0,23,0.00,BKN,,0.00,635.0,WeatherDisplay:10.37,2013-01-13 19:49:00,
2013-01-13 11:54:00,33.4,-1.4,30.19,ENE,64,6.9,6.9,22,0.00,BKN,,0.00,681.7,WeatherDisplay:10.37,2013-01-13 19:54:00,
2013-01-13 11:59:00,33.5,-0.4,30.19,NE,51,4.6,4.6,23,0.00,BKN,,0.00,658.9,WeatherDisplay:10.37,2013-01-13 19:59:00,
2013-01-13 12:04:00,33.7,-0.2,30.19,NE,34,2.3,2.3,23,0.00,BKN,,0.00,677.2,WeatherDisplay:10.37,2013-01-13 20:04:00,
2013-01-13 12:09:00,35.3,0.2,30.19,NNE,13,9.2,9.2,22,0.00,BKN,,0.00,731.9,WeatherDisplay:10.37,2013-01-13 20:09:00,
2013-01-13 12:14:00,35.7,-2.6,30.18,NE,51,4.6,4.6,19,0.00,BKN,,0.00,703.4,WeatherDisplay:10.37,2013-01-13 20:14:00,
2013-01-13 12:19:00,34.1,-0.8,30.18,ENE,74,6.0,6.0,22,0.00,BKN,,0.00,665.8,WeatherDisplay:10.37,2013-01-13 20:19:00,
2013-01-13 12:24:00,35.1,-1.0,30.18,SE,130,6.9,6.9,21,0.00,BKN,,0.00,647.5,WeatherDisplay:10.37,2013-01-13 20:24:00,
2013-01-13 12:29:00,32.9,-1.9,30.17,ENE,67,3.5,3.5,22,0.00,BKN,,0.00,641.8,WeatherDisplay:10.37,2013-01-13 20:29:00,
2013-01-13 12:34:00,34.1,-0.8,30.17,ENE,65,6.0,6.0,22,0.00,BKN,,0.00,641.8,WeatherDisplay:10.37,2013-01-13 20:34:00,
2013-01-13 12:39:00,36.0,-0.2,30.17,ESE,110,3.5,3.5,21,0.00,BKN,,0.00,629.3,WeatherDisplay:10.37,2013-01-13 20:39:00,
2013-01-13 12:44:00,34.1,-0.8,30.17,East,87,6.9,6.9,22,0.00,BKN,,0.00,637.3,WeatherDisplay:10.37,2013-01-13 20:44:00,
2013-01-13 12:49:00,33.5,-0.4,30.17,ENE,60,6.0,6.0,23,0.00,BKN,,0.00,595.1,WeatherDisplay:10.37,2013-01-13 20:49:00,
2013-01-13 12:54:00,34.1,-1.8,30.17,ENE,59,8.1,8.1,21,0.00,BKN,,0.00,557.5,WeatherDisplay:10.37,2013-01-13 20:54:00,
2013-01-13 12:59:00,33.5,-2.3,30.17,ENE,67,8.1,8.1,21,0.00,BKN,,0.00,573.4,WeatherDisplay:10.37,2013-01-13 20:59:00,
2013-01-13 13:04:00,33.8,-1.1,30.11,North,360,6.9,6.9,22,0.00,BKN,,0.00,517.6,WeatherDisplay:10.37,2013-01-13 21:04:00,
2013-01-13 13:09:00,32.8,-2.0,30.11,SSE,159,9.2,9.2,22,0.00,BKN,,0.00,340.9,WeatherDisplay:10.37,2013-01-13 21:09:00,
2013-01-13 13:14:00,33.8,-1.1,30.11,North,360,5.8,5.8,22,0.00,BKN,,0.00,441.2,WeatherDisplay:10.37,2013-01-13 21:14:00,
2013-01-13 13:19:00,35.0,-1.1,30.11,East,80,6.9,6.9,21,0.00,BKN,,0.00,370.5,WeatherDisplay:10.37,2013-01-13 21:19:00,
2013-01-13 13:24:00,33.4,-2.4,30.11,ENE,75,2.3,0.0,21,0.00,BKN,,0.00,491.3,WeatherDisplay:10.37,2013-01-13 21:24:00,
2013-01-13 13:29:00,33.7,-2.2,30.11,ENE,65,1.0,1.0,21,0.00,BKN,,0.00,286.1,WeatherDisplay:10.37,2013-01-13 21:29:00,
2013-01-13 13:34:00,33.2,-1.6,30.11,ENE,61,0.0,0.0,22,0.00,BKN,,0.00,385.3,WeatherDisplay:10.37,2013-01-13 21:34:00,
2013-01-13 13:39:00,34.4,-2.6,30.11,NNW,341,10.0,10.0,20,0.00,BKN,,0.00,316.9,WeatherDisplay:10.37,2013-01-13 21:39:00,
2013-01-13 13:44:00,34.0,-1.9,30.11,NNE,21,5.8,5.8,21,0.00,BKN,,0.00,417.2,WeatherDisplay:10.37,2013-01-13 21:44:00,
2013-01-13 13:49:00,34.0,-1.9,30.11,SE,146,8.1,8.1,21,0.00,BKN,,0.00,375.1,WeatherDisplay:10.37,2013-01-13 21:49:00,
2013-01-13 13:54:00,33.4,-1.4,30.11,SSE,158,5.0,5.0,22,0.00,BKN,,0.00,425.2,WeatherDisplay:10.37,2013-01-13 21:54:00,
2013-01-13 13:59:00,33.1,-2.7,30.11,ENE,74,2.3,2.3,21,0.00,BKN,,0.00,192.7,WeatherDisplay:10.37,2013-01-13 21:59:00,
2013-01-13 14:04:00,34.0,-2.9,30.11,NW,306,5.8,5.8,20,0.00,BKN,,0.00,491.3,WeatherDisplay:10.37,2013-01-13 22:04:00,
2013-01-13 14:09:00,33.7,-4.3,30.11,ENE,74,4.0,4.0,19,0.00,BKN,,0.00,468.5,WeatherDisplay:10.37,2013-01-13 22:09:00,
2013-01-13 14:14:00,33.5,-4.4,30.10,East,100,6.9,6.9,19,0.00,BKN,,0.00,475.4,WeatherDisplay:10.37,2013-01-13 22:14:00,
2013-01-13 14:19:00,34.4,-2.6,30.10,North,350,4.0,4.0,20,0.00,BKN,,0.00,459.4,WeatherDisplay:10.37,2013-01-13 22:19:00,
2013-01-13 14:24:00,35.6,-3.8,30.10,NNE,28,5.8,5.8,18,0.00,BKN,,0.00,449.2,WeatherDisplay:10.37,2013-01-13 22:24:00,
2013-01-13 14:29:00,34.7,-4.6,30.10,NE,48,2.0,2.0,18,0.00,BKN,,0.00,434.3,WeatherDisplay:10.37,2013-01-13 22:29:00,
2013-01-13 14:34:00,35.6,-1.6,30.10,ENE,59,4.0,4.0,20,0.00,BKN,,0.00,418.4,WeatherDisplay:10.37,2013-01-13 22:34:00,
2013-01-13 14:39:00,34.9,-2.2,30.10,ESE,110,3.5,3.5,20,0.00,BKN,,0.00,402.4,WeatherDisplay:10.37,2013-01-13 22:39:00,
2013-01-13 14:44:00,34.7,-4.6,30.10,NNE,14,8.1,8.1,18,0.00,BKN,,0.00,391.0,WeatherDisplay:10.37,2013-01-13 22:44:00,
2013-01-13 14:49:00,34.7,-4.6,30.10,ENE,59,6.9,6.9,18,0.00,BKN,,0.00,376.2,WeatherDisplay:10.37,2013-01-13 22:49:00,
2013-01-13 14:55:00,34.4,-4.8,30.10,NE,42,5.8,5.8,18,0.00,BKN,,0.00,362.5,WeatherDisplay:10.37,2013-01-13 22:55:00,
2013-01-13 15:00:00,34.4,-4.8,30.10,ENE,68,8.0,8.0,18,0.00,BKN,,0.00,351.1,WeatherDisplay:10.37,2013-01-13 23:00:00,
2013-01-13 15:05:00,33.5,-5.6,30.10,NNE,25,6.0,6.0,18,0.00,BKN,,0.00,330.6,WeatherDisplay:10.37,2013-01-13 23:05:00,
2013-01-13 15:10:00,33.4,-4.5,30.10,NE,55,6.9,6.9,19,0.00,BKN,,0.00,330.6,WeatherDisplay:10.37,2013-01-13 23:10:00,
2013-01-13 15:15:00,33.7,-4.3,30.10,NE,53,2.0,2.0,19,0.00,BKN,,0.00,310.1,WeatherDisplay:10.37,2013-01-13 23:15:00,
2013-01-13 15:20:00,33.1,-2.7,30.10,ESE,109,4.6,4.6,21,0.00,BKN,,0.00,296.4,WeatherDisplay:10.37,2013-01-13 23:20:00,
2013-01-13 15:25:00,32.2,-3.4,30.10,ESE,110,2.3,2.3,21,0.00,BKN,,0.00,269.0,WeatherDisplay:10.37,2013-01-13 23:25:00,
2013-01-13 15:30:00,32.0,-2.6,30.11,ENE,67,3.5,3.5,22,0.00,BKN,,0.00,246.2,WeatherDisplay:10.37,2013-01-13 23:30:00,
2013-01-13 15:35:00,31.8,-2.8,30.11,SSE,163,6.9,6.9,22,0.00,BKN,,0.00,236.0,WeatherDisplay:10.37,2013-01-13 23:35:00,
2013-01-13 15:40:00,31.8,-2.8,30.11,SSE,151,3.5,3.5,22,0.00,BKN,,0.00,216.6,WeatherDisplay:10.37,2013-01-13 23:40:00,
2013-01-13 15:45:00,31.6,-3.9,30.11,NE,44,2.3,2.3,21,0.00,BKN,,0.00,214.3,WeatherDisplay:10.37,2013-01-13 23:45:00,
2013-01-13 15:50:00,31.5,-3.1,30.11,ENE,75,1.1,1.1,22,0.00,BKN,,0.00,204.1,WeatherDisplay:10.37,2013-01-13 23:50:00,
2013-01-13 15:55:00,31.6,-3.9,30.11,NE,35,5.8,5.8,21,0.00,BKN,,0.00,188.1,WeatherDisplay:10.37,2013-01-13 23:55:00,
2013-01-13 16:00:00,31.8,-3.8,30.11,NE,45,6.9,6.9,21,0.00,SCT,,0.00,124.3,WeatherDisplay:10.37,2013-01-14 00:00:00,
2013-01-13 16:05:00,31.6,-3.9,30.11,NE,44,3.5,3.5,21,0.00,SCT,,0.00,58.1,WeatherDisplay:10.37,2013-01-14 00:05:00,
2013-01-13 16:10:00,31.6,-3.0,30.11,NE,46,5.8,5.8,22,0.00,SCT,,0.00,60.4,WeatherDisplay:10.37,2013-01-14 00:10:00,
2013-01-13 16:15:00,31.6,-3.0,30.12,NE,46,3.5,3.5,22,0.00,SCT,,0.00,55.9,WeatherDisplay:10.37,2013-01-14 00:15:00,
2013-01-13 16:20:00,31.5,-4.0,30.12,NE,42,3.5,3.5,21,0.00,SCT,,0.00,45.6,WeatherDisplay:10.37,2013-01-14 00:20:00,
2013-01-13 16:25:00,31.5,-4.0,30.12,NE,43,5.8,5.8,21,0.00,SCT,,0.00,37.6,WeatherDisplay:10.37,2013-01-14 00:25:00,
2013-01-13 16:30:00,31.5,-3.1,30.13,NE,49,2.3,2.3,22,0.00,SCT,,0.00,26.2,WeatherDisplay:10.37,2013-01-14 00:30:00,
2013-01-13 16:35:00,31.3,-4.2,30.13,NE,36,7.0,7.0,21,0.00,SCT,,0.00,18.2,WeatherDisplay:10.37,2013-01-14 00:35:00,
2013-01-13 16:40:00,31.2,-4.3,30.13,NE,47,5.8,5.8,21,0.00,SCT,,0.00,12.5,WeatherDisplay:10.37,2013-01-14 00:40:00,
2013-01-13 16:45:00,31.0,-3.5,30.13,NE,34,5.8,5.8,22,0.00,SCT,,0.00,8.0,WeatherDisplay:10.37,2013-01-14 00:45:00,
2013-01-13 16:50:00,31.0,-3.5,30.13,NE,36,3.5,3.5,22,0.00,SCT,,0.00,5.7,WeatherDisplay:10.37,2013-01-14 00:50:00,
2013-01-13 16:55:00,30.9,-3.6,30.13,ENE,58,5.8,5.8,22,0.00,SCT,,0.00,0.0,WeatherDisplay:10.37,2013-01-14 00:55:00,
2013-01-13 17:00:00,30.9,-3.6,30.13,NE,36,8.0,8.0,22,0.00,SCT,,0.00,0.0,WeatherDisplay:10.37,2013-01-14 01:00:00,
2013-01-13 17:05:00,30.6,-3.8,30.13,NNE,12,5.8,5.8,22,0.00,SCT,,0.00,0.0,WeatherDisplay:10.37,2013-01-14 01:05:00,
2013-01-13 17:10:00,30.6,-3.8,30.13,NNE,21,8.1,8.1,22,0.00,SCT,,0.00,0.0,WeatherDisplay:10.37,2013-01-14 01:10:00,
2013-01-13 17:15:00,30.4,-5.0,30.13,NE,46,5.0,5.0,21,0.00,SCT,,0.00,0.0,WeatherDisplay:10.37,2013-01-14 01:15:00,
2013-01-13 17:20:00,30.4,-4.0,30.13,North,350,5.8,5.8,22,0.00,SCT,,0.00,0.0,WeatherDisplay:10.37,2013-01-14 01:20:00,
2013-01-13 17:25:00,30.4,-4.0,30.13,North,360,6.9,6.9,22,0.00,SCT,,0.00,0.0,WeatherDisplay:10.37,2013-01-14 01:25:00,
2013-01-13 17:30:00,30.4,-4.0,30.14,North,351,2.3,2.3,22,0.00,SCT,,0.00,0.0,WeatherDisplay:10.37,2013-01-14 01:30:00,
2013-01-13 17:35:00,30.3,-5.0,30.14,NNW,346,4.6,4.6,21,0.00,SCT,,0.00,0.0,WeatherDisplay:10.37,2013-01-14 01:35:00,
2013-01-13 17:40:00,30.1,-5.2,30.14,North,351,9.2,9.2,21,0.00,SCT,,0.00,0.0,WeatherDisplay:10.37,2013-01-14 01:40:00,
2013-01-13 17:45:00,30.1,-6.2,30.15,NNW,335,6.9,6.9,20,0.00,SCT,,0.00,0.0,WeatherDisplay:10.37,2013-01-14 01:45:00,
2013-01-13 17:50:00,30.0,-6.3,30.15,WSW,257,6.0,6.0,20,0.00,SCT,,0.00,0.0,WeatherDisplay:10.37,2013-01-14 01:50:00,
2013-01-13 17:55:00,29.8,-6.5,30.15,North,360,3.5,3.5,20,0.00,SCT,,0.00,0.0,WeatherDisplay:10.37,2013-01-14 01:55:00,
2013-01-13 18:00:00,29.7,-6.6,30.15,WNW,303,6.9,6.9,20,0.00,BKN,,0.00,0.0,WeatherDisplay:10.37,2013-01-14 02:00:00,
2013-01-13 18:05:00,29.5,-5.7,30.15,NNW,336,5.8,5.8,21,0.00,BKN,,0.00,0.0,WeatherDisplay:10.37,2013-01-14 02:05:00,
2013-01-13 18:10:00,29.5,-5.7,30.15,WNW,285,8.0,8.0,21,0.00,BKN,,0.00,0.0,WeatherDisplay:10.37,2013-01-14 02:10:00,
2013-01-13 18:15:00,29.4,-5.8,30.16,NNW,331,6.9,6.9,21,0.00,BKN,,0.00,0.0,WeatherDisplay:10.37,2013-01-14 02:15:00,
2013-01-13 18:20:00,29.2,-6.0,30.16,North,360,9.2,9.2,21,0.00,BKN,,0.00,0.0,WeatherDisplay:10.37,2013-01-14 02:20:00,
2013-01-13 18:25:00,29.1,-6.1,30.16,NNW,340,8.1,8.1,21,0.00,BKN,,0.00,0.0,WeatherDisplay:10.37,2013-01-14 02:25:00,
2013-01-13 18:30:00,29.1,-6.1,30.16,NNW,333,11.5,11.5,21,0.00,BKN,,0.00,0.0,WeatherDisplay:10.37,2013-01-14 02:30:00,
2013-01-13 18:35:00,29.1,-6.1,30.16,NNW,332,9.2,9.2,21,0.00,BKN,,0.00,0.0,WeatherDisplay:10.37,2013-01-14 02:35:00,
2013-01-13 18:40:00,28.9,-5.3,30.16,NNW,338,8.1,8.1,22,0.00,BKN,,0.00,0.0,WeatherDisplay:10.37,2013-01-14 02:40:00,
2013-01-13 18:45:00,28.8,-5.3,30.16,NNW,331,8.1,8.1,22,0.00,BKN,,0.00,0.0,WeatherDisplay:10.37,2013-01-14 02:45:00,
2013-01-13 18:50:00,28.8,-5.3,30.16,North,351,8.1,8.1,22,0.00,BKN,,0.00,0.0,WeatherDisplay:10.37,2013-01-14 02:50:00,
2013-01-13 18:55:00,28.8,-4.4,30.16,North,351,6.0,6.0,23,0.00,BKN,,0.00,0.0,WeatherDisplay:10.37,2013-01-14 02:55:00,
2013-01-13 19:00:00,28.6,-4.6,30.16,NNE,32,8.1,8.1,23,0.00,BKN,,0.00,0.0,WeatherDisplay:10.37,2013-01-14 03:00:00,
2013-01-13 19:05:00,28.6,-4.6,30.16,North,9,10.4,10.4,23,0.00,BKN,,0.00,0.0,WeatherDisplay:10.37,2013-01-14 03:05:00,
2013-01-13 19:10:00,28.5,-4.7,30.16,NW,311,10.4,10.4,23,0.00,BKN,,0.00,0.0,WeatherDisplay:10.37,2013-01-14 03:10:00,
2013-01-13 19:15:00,28.5,-4.7,30.16,NNW,340,11.5,11.5,23,0.00,BKN,,0.00,0.0,WeatherDisplay:10.37,2013-01-14 03:15:00,
2013-01-13 19:20:00,28.5,-4.7,30.16,NNW,329,11.5,11.5,23,0.00,BKN,,0.00,0.0,WeatherDisplay:10.37,2013-01-14 03:20:00,
2013-01-13 19:25:00,28.5,-4.7,30.16,NW,326,11.5,11.5,23,0.00,BKN,,0.00,0.0,WeatherDisplay:10.37,2013-01-14 03:25:00,
2013-01-13 19:30:00,28.5,-4.7,30.16,North,10,7.0,7.0,23,0.00,BKN,,0.00,0.0,WeatherDisplay:10.37,2013-01-14 03:30:00,
2013-01-13 19:35:00,28.4,-4.8,30.16,North,350,11.0,11.0,23,0.00,BKN,,0.00,0.0,WeatherDisplay:10.37,2013-01-14 03:35:00,
2013-01-13 19:40:00,28.4,-4.8,30.16,NE,48,8.1,8.1,23,0.00,BKN,,0.00,0.0,WeatherDisplay:10.37,2013-01-14 03:40:00,
2013-01-13 19:45:00,28.4,-4.8,30.17,NNW,332,10.4,10.4,23,0.00,BKN,,0.00,0.0,WeatherDisplay:10.37,2013-01-14 03:45:00,
2013-01-13 19:50:00,28.4,-4.8,30.17,North,351,11.5,11.5,23,0.00,BKN,,0.00,0.0,WeatherDisplay:10.37,2013-01-14 03:50:00,
2013-01-13 19:55:00,28.4,-4.8,30.17,NW,306,8.1,8.1,23,0.00,BKN,,0.00,0.0,WeatherDisplay:10.37,2013-01-14 03:55:00,
2013-01-13 20:00:00,28.2,-4.0,30.17,WNW,291,8.1,8.1,24,0.00,BKN,,0.00,0.0,WeatherDisplay:10.37,2013-01-14 04:00:00,
2013-01-13 20:05:00,28.1,-4.1,30.17,North,351,10.4,10.4,24,0.00,BKN,,0.00,0.0,WeatherDisplay:10.37,2013-01-14 04:05:00,
2013-01-13 20:10:00,27.9,-3.4,30.17,NNE,18,3.5,3.5,25,0.00,BKN,,0.00,0.0,WeatherDisplay:10.37,2013-01-14 04:10:00,
2013-01-13 20:15:00,27.9,-3.4,30.17,WNW,292,6.0,6.0,25,0.00,BKN,,0.00,0.0,WeatherDisplay:10.37,2013-01-14 04:15:00,
2013-01-13 20:20:00,27.9,-3.4,30.17,NNW,333,12.7,12.7,25,0.00,BKN,,0.00,0.0,WeatherDisplay:10.37,2013-01-14 04:20:00,
2013-01-13 20:25:00,27.8,-3.5,30.17,NNE,22,8.1,8.1,25,0.00,BKN,,0.00,0.0,WeatherDisplay:10.37,2013-01-14 04:25:00,
2013-01-13 20:30:00,27.6,-2.9,30.18,North,360,11.5,11.5,26,0.00,BKN,,0.00,0.0,WeatherDisplay:10.37,2013-01-14 04:30:00,
2013-01-13 20:35:00,27.5,-3.0,30.18,NE,34,8.1,8.1,26,0.00,BKN,,0.00,0.0,WeatherDisplay:10.37,2013-01-14 04:35:00,
2013-01-13 20:40:00,27.0,-4.2,30.18,North,351,10.4,10.4,25,0.00,BKN,,0.00,0.0,WeatherDisplay:10.37,2013-01-14 04:40:00,
2013-01-13 20:45:00,26.9,-4.3,30.18,North,360,9.2,9.2,25,0.00,BKN,,0.00,0.0,WeatherDisplay:10.37,2013-01-14 04:45:00,
2013-01-13 20:50:00,26.6,-3.0,30.18,NE,36,11.5,11.5,27,0.00,BKN,,0.00,0.0,WeatherDisplay:10.37,2013-01-14 04:50:00,
2013-01-13 20:55:00,26.3,-3.2,30.18,NNE,17,9.2,9.2,27,0.00,BKN,,0.00,0.0,WeatherDisplay:10.37,2013-01-14 04:55:00,
2013-01-13 21:01:00,26.0,-2.7,30.19,NNW,348,4.6,4.6,28,0.00,SCT,,0.00,0.0,WeatherDisplay:10.37,2013-01-14 05:01:00,
2013-01-13 21:03:00,25.8,-2.9,30.19,NNE,27,8.1,8.1,28,0.00,SCT,,0.00,0.0,WeatherDisplay:10.37,2013-01-14 05:03:00,
2013-01-13 21:05:00,25.8,-2.9,30.19,North,360,6.9,6.9,28,0.00,SCT,,0.00,0.0,WeatherDisplay:10.37,2013-01-14 05:05:00,
2013-01-13 21:10:00,25.7,-2.2,30.19,NW,317,5.8,5.8,29,0.00,SCT,,0.00,0.0,WeatherDisplay:10.37,2013-01-14 05:10:00,
2013-01-13 21:15:00,25.5,-1.7,30.19,NNE,26,5.8,5.8,30,0.00,SCT,,0.00,0.0,WeatherDisplay:10.37,2013-01-14 05:15:00,
2013-01-13 21:20:00,25.5,-1.7,30.19,NW,306,5.0,5.0,30,0.00,SCT,,0.00,0.0,WeatherDisplay:10.37,2013-01-14 05:20:00,
2013-01-13 21:25:00,26.0,-0.6,30.19,ENE,64,6.9,6.9,31,0.00,SCT,,0.00,0.0,WeatherDisplay:10.37,2013-01-14 05:25:00,
2013-01-13 21:30:00,26.1,-0.5,30.19,NNE,23,8.1,8.1,31,0.00,SCT,,0.00,0.0,WeatherDisplay:10.37,2013-01-14 05:30:00,
2013-01-13 21:35:00,26.3,-0.3,30.19,NNW,333,8.1,8.1,31,0.00,SCT,,0.00,0.0,WeatherDisplay:10.37,2013-01-14 05:35:00,
2013-01-13 21:40:00,26.3,-0.3,30.19,North,360,5.8,5.8,31,0.00,SCT,,0.00,0.0,WeatherDisplay:10.37,2013-01-14 05:40:00,
2013-01-13 21:45:00,26.3,-0.3,30.20,North,351,10.4,10.4,31,0.00,SCT,,0.00,0.0,WeatherDisplay:10.37,2013-01-14 05:45:00,
2013-01-13 21:50:00,26.3,-1.0,30.20,North,360,4.6,4.6,30,0.00,SCT,,0.00,0.0,WeatherDisplay:10.37,2013-01-14 05:50:00,
2013-01-13 21:55:00,26.3,-1.0,30.20,West,259,8.1,8.1,30,0.00,SCT,,0.00,0.0,WeatherDisplay:10.37,2013-01-14 05:55:00,
2013-01-13 22:00:00,26.1,-1.2,30.20,North,360,3.5,3.5,30,0.00,SCT,,0.00,0.0,WeatherDisplay:10.37,2013-01-14 06:00:00,
2013-01-13 22:05:00,26.0,-0.6,30.20,NNW,327,4.6,4.6,31,0.00,SCT,,0.00,0.0,WeatherDisplay:10.37,2013-01-14 06:05:00,
2013-01-13 22:10:00,25.8,-0.7,30.20,NW,326,5.0,5.0,31,0.00,SCT,,0.00,0.0,WeatherDisplay:10.37,2013-01-14 06:10:00,
2013-01-13 22:15:00,25.7,-1.5,30.20,WSW,248,9.2,9.2,30,0.00,SCT,,0.00,0.0,WeatherDisplay:10.37,2013-01-14 06:15:00,
2013-01-13 22:20:00,25.5,-1.7,30.20,NNE,13,6.9,6.9,30,0.00,SCT,,0.00,0.0,WeatherDisplay:10.37,2013-01-14 06:20:00,
2013-01-13 22:25:00,25.4,-1.8,30.20,North,351,5.0,5.0,30,0.00,SCT,,0.00,0.0,WeatherDisplay:10.37,2013-01-14 06:25:00,
2013-01-13 22:30:00,25.4,-1.8,30.20,WNW,292,10.4,10.4,30,0.00,SCT,,0.00,0.0,WeatherDisplay:10.37,2013-01-14 06:30:00,
2013-01-13 22:35:00,25.4,-1.8,30.20,West,266,11.5,11.5,30,0.00,SCT,,0.00,0.0,WeatherDisplay:10.37,2013-01-14 06:35:00,
2013-01-13 22:40:00,25.2,-2.0,30.20,NW,320,11.5,11.5,30,0.00,SCT,,0.00,0.0,WeatherDisplay:10.37,2013-01-14 06:40:00,
2013-01-13 22:45:00,25.1,-2.8,30.21,NW,322,13.0,13.0,29,0.00,SCT,,0.00,0.0,WeatherDisplay:10.37,2013-01-14 06:45:00,
2013-01-13 22:50:00,25.1,-2.8,30.21,North,360,8.0,8.0,29,0.00,SCT,,0.00,0.0,WeatherDisplay:10.37,2013-01-14 06:50:00,
2013-01-13 22:55:00,24.9,-3.7,30.21,NNE,28,12.7,12.7,28,0.00,SCT,,0.00,0.0,WeatherDisplay:10.37,2013-01-14 06:55:00,
2013-01-13 23:00:00,24.9,-4.4,30.21,NNE,15,11.5,11.5,27,0.00,FEW,,0.00,0.0,WeatherDisplay:10.37,2013-01-14 07:00:00,
2013-01-13 23:05:00,24.8,-3.8,30.21,NW,314,5.8,5.8,28,0.00,FEW,,0.00,0.0,WeatherDisplay:10.37,2013-01-14 07:05:00,
2013-01-13 23:10:00,24.7,-3.8,30.21,West,267,4.6,4.6,28,0.00,FEW,,0.00,0.0,WeatherDisplay:10.37,2013-01-14 07:10:00,
2013-01-13 23:15:00,24.5,-4.0,30.21,NNW,344,9.2,9.2,28,0.00,FEW,,0.00,0.0,WeatherDisplay:10.37,2013-01-14 07:15:00,
2013-01-13 23:20:00,24.5,-5.6,30.21,NNE,17,10.4,10.4,26,0.00,FEW,,0.00,0.0,WeatherDisplay:10.37,2013-01-14 07:20:00,
2013-01-13 23:25:00,24.5,-5.6,30.21,NNW,338,9.2,9.2,26,0.00,FEW,,0.00,0.0,WeatherDisplay:10.37,2013-01-14 07:25:00,
2013-01-13 23:30:00,24.4,-5.6,30.21,NNW,346,13.8,13.8,26,0.00,FEW,,0.00,0.0,WeatherDisplay:10.37,2013-01-14 07:30:00,
2013-01-13 23:35:00,24.4,-5.6,30.21,NNW,330,10.4,10.4,26,0.00,FEW,,0.00,0.0,WeatherDisplay:10.37,2013-01-14 07:35:00,
2013-01-13 23:40:00,24.4,-5.6,30.21,NNE,13,11.5,11.5,26,0.00,FEW,,0.00,0.0,WeatherDisplay:10.37,2013-01-14 07:40:00,
2013-01-13 23:45:00,24.4,-5.6,30.22,NE,55,17.3,17.3,26,0.00,FEW,,0.00,0.0,WeatherDisplay:10.37,2013-01-14 07:45:00,
2013-01-13 23:50:00,24.2,-6.6,30.22,North,350,11.5,11.5,25,0.00,FEW,,0.00,0.0,WeatherDisplay:10.37,2013-01-14 07:50:00,
2013-01-13 23:55:00,24.1,-6.7,30.22,NNE,24,10.4,10.4,25,0.00,FEW,,0.00,0.0,WeatherDisplay:10.37,2013-01-14 07:55:00,